createdAt,value
2018-08-11T00:00:27.212Z,82.18
2018-08-11T00:02:56.089Z,81.97
2018-08-11T00:05:24.831Z,82.48
2018-08-11T00:07:53.620Z,82.17
2018-08-11T00:10:22.496Z,81.66
2018-08-11T00:12:51.218Z,81.34
2018-08-11T00:15:20.798Z,80.95
2018-08-11T00:17:49.542Z,81.07
2018-08-11T00:20:27.649Z,81.11
2018-08-11T00:22:56.397Z,81.46
2018-08-11T00:25:25.165Z,80.63
2018-08-11T00:27:53.901Z,80.58
2018-08-11T00:30:23.232Z,80.31
2018-08-11T00:32:51.985Z,81.10
2018-08-11T00:35:20.799Z,81.52
2018-08-11T00:37:49.517Z,82.19
2018-08-11T00:40:19.597Z,82.34
2018-08-11T00:42:49.592Z,82.84
2018-08-11T00:45:18.848Z,83.36
2018-08-11T00:47:47.759Z,83.87
2018-08-11T00:50:23.402Z,84.03
2018-08-11T00:52:52.337Z,83.98
2018-08-11T00:55:21.098Z,83.90
2018-08-11T00:57:49.809Z,83.59
2018-08-11T01:00:20.090Z,82.37
2018-08-11T01:02:48.912Z,83.42
2018-08-11T01:05:19.116Z,82.42
2018-08-11T01:07:48.414Z,82.60
2018-08-11T01:10:17.548Z,81.92
2018-08-11T01:12:47.230Z,81.46
2018-08-11T01:15:19.225Z,80.95
2018-08-11T01:17:48.806Z,81.52
2018-08-11T01:20:17.799Z,80.95
2018-08-11T01:22:47.185Z,80.84
2018-08-11T01:25:16.197Z,80.63
2018-08-11T01:27:44.892Z,80.86
2018-08-11T01:30:15.367Z,81.16
2018-08-11T01:32:44.202Z,80.43
2018-08-11T01:35:13.131Z,80.47
2018-08-11T01:37:42.933Z,80.48
2018-08-11T01:40:12.952Z,80.29
2018-08-11T01:42:43.055Z,80.30
2018-08-11T01:45:13.281Z,80.40
2018-08-11T01:47:42.557Z,80.56
2018-08-11T01:50:12.782Z,80.52
2018-08-11T01:52:42.644Z,80.60
2018-08-11T01:55:12.709Z,80.50
2018-08-11T01:57:41.617Z,80.78
2018-08-11T02:00:12.099Z,81.14
2018-08-11T02:02:41.537Z,81.12
2018-08-11T02:05:11.342Z,81.33
2018-08-11T02:07:41.335Z,81.56
2018-08-11T02:10:12.624Z,81.12
2018-08-11T02:12:41.416Z,80.96
2018-08-11T02:15:11.936Z,81.40
2018-08-11T02:17:40.670Z,80.86
2018-08-11T02:20:16.368Z,80.87
2018-08-11T02:22:46.006Z,80.39
2018-08-11T02:25:14.814Z,81.16
2018-08-11T02:27:43.520Z,80.39
2018-08-11T02:30:14.314Z,80.32
2018-08-11T02:32:43.011Z,80.63
2018-08-11T02:35:13.573Z,80.26
2018-08-11T02:37:42.744Z,80.40
2018-08-11T02:40:12.904Z,79.96
2018-08-11T02:42:41.618Z,79.77
2018-08-11T02:45:12.257Z,80.20
2018-08-11T02:47:40.931Z,79.71
2018-08-11T02:50:11.815Z,80.42
2018-08-11T02:52:41.145Z,80.14
2018-08-11T02:55:10.106Z,79.53
2018-08-11T02:57:38.902Z,79.43
2018-08-11T03:00:10.529Z,78.81
2018-08-11T03:02:39.288Z,79.01
2018-08-11T03:05:08.104Z,78.76
2018-08-11T03:07:37.343Z,78.77
2018-08-11T03:10:07.443Z,79.41
2018-08-11T03:12:36.269Z,79.64
2018-08-11T03:15:05.958Z,79.52
2018-08-11T03:17:34.667Z,79.98
2018-08-11T03:20:03.462Z,80.16
2018-08-11T03:22:32.213Z,80.08
2018-08-11T03:25:01.355Z,79.89
2018-08-11T03:27:30.215Z,80.04
2018-08-11T03:29:59.080Z,80.66
2018-08-11T03:32:27.925Z,80.46
2018-08-11T03:34:56.650Z,80.68
2018-08-11T03:37:25.589Z,80.98
2018-08-11T03:39:54.489Z,80.72
2018-08-11T03:42:23.378Z,81.10
2018-08-11T03:44:52.119Z,81.53
2018-08-11T03:47:20.971Z,81.00
2018-08-11T03:49:49.714Z,80.65
2018-08-11T03:52:18.447Z,80.19
2018-08-11T03:54:47.208Z,80.40
2018-08-11T03:57:16.004Z,80.90
2018-08-11T03:59:44.762Z,80.67
2018-08-11T04:02:13.510Z,81.14
2018-08-11T04:04:42.296Z,80.64
2018-08-11T04:07:11.087Z,81.12
2018-08-11T04:09:39.827Z,80.76
2018-08-11T04:12:09.760Z,81.38
2018-08-11T04:14:38.523Z,81.19
2018-08-11T04:17:07.388Z,81.10
2018-08-11T04:19:36.180Z,81.63
2018-08-11T04:22:04.997Z,82.41
2018-08-11T04:24:33.699Z,83.60
2018-08-11T04:27:02.472Z,83.28
2018-08-11T04:29:31.363Z,84.03
2018-08-11T04:32:00.237Z,84.30
2018-08-11T04:34:29.138Z,85.05
2018-08-11T04:36:57.948Z,86.01
2018-08-11T04:39:26.781Z,86.59
2018-08-11T04:41:55.679Z,86.84
2018-08-11T04:44:24.488Z,86.58
2018-08-11T04:46:53.175Z,87.88
2018-08-11T04:49:22.221Z,87.70
2018-08-11T04:51:50.979Z,87.58
2018-08-11T04:54:19.858Z,88.10
2018-08-11T04:56:48.635Z,86.66
2018-08-11T04:59:17.459Z,87.17
2018-08-11T05:01:46.499Z,86.77
2018-08-11T05:04:15.211Z,87.22
2018-08-11T05:06:43.988Z,86.55
2018-08-11T05:09:12.826Z,86.01
2018-08-11T05:11:41.793Z,86.09
2018-08-11T05:14:10.634Z,85.17
2018-08-11T05:16:40.093Z,84.64
2018-08-11T05:19:08.935Z,84.44
2018-08-11T05:21:37.673Z,84.10
2018-08-11T05:24:06.749Z,83.15
2018-08-11T05:26:35.610Z,83.89
2018-08-11T05:29:04.367Z,83.01
2018-08-11T05:31:34.711Z,83.73
2018-08-11T05:34:03.546Z,82.51
2018-08-11T05:36:32.353Z,82.44
2018-08-11T05:39:01.305Z,82.47
2018-08-11T05:41:32.977Z,82.66
2018-08-11T05:44:01.724Z,82.46
2018-08-11T05:46:30.609Z,82.56
2018-08-11T05:48:59.421Z,82.12
2018-08-11T05:51:28.218Z,81.91
2018-08-11T05:53:56.999Z,80.97
2018-08-11T05:56:25.831Z,80.12
2018-08-11T05:58:54.665Z,80.40
2018-08-11T06:01:23.469Z,79.68
2018-08-11T06:03:52.217Z,79.47
2018-08-11T06:06:21.033Z,78.88
2018-08-11T06:08:49.848Z,78.02
2018-08-11T06:11:21.740Z,78.60
2018-08-11T06:13:50.683Z,77.85
2018-08-11T06:16:19.470Z,78.00
2018-08-11T06:18:48.309Z,77.23
2018-08-11T06:21:17.142Z,76.38
2018-08-11T06:23:45.850Z,76.59
2018-08-11T06:26:14.712Z,76.45
2018-08-11T06:28:45.003Z,76.46
2018-08-11T06:31:13.880Z,76.06
2018-08-11T06:33:42.672Z,75.85
2018-08-11T06:36:11.520Z,75.86
2018-08-11T06:38:40.299Z,74.68
2018-08-11T06:41:09.131Z,74.51
2018-08-11T06:43:38.072Z,75.15
2018-08-11T06:46:06.909Z,73.60
2018-08-11T06:48:36.636Z,72.01
2018-08-11T06:51:05.538Z,72.40
2018-08-11T06:53:34.655Z,71.80
2018-08-11T06:56:03.766Z,71.14
2018-08-11T06:58:32.744Z,70.16
2018-08-11T07:01:01.573Z,70.51
2018-08-11T07:03:30.461Z,70.31
2018-08-11T07:05:59.353Z,69.04
2018-08-11T07:08:30.748Z,67.97
2018-08-11T07:10:59.641Z,67.37
2018-08-11T07:13:28.666Z,66.40
2018-08-11T07:15:57.552Z,65.68
2018-08-11T07:18:26.371Z,64.62
2018-08-11T07:20:55.237Z,64.60
2018-08-11T07:23:24.069Z,64.52
2018-08-11T07:25:52.929Z,62.79
2018-08-11T07:28:21.709Z,61.85
2018-08-11T07:30:50.676Z,62.40
2018-08-11T07:33:19.497Z,62.12
2018-08-11T07:35:48.362Z,61.70
2018-08-11T07:38:17.287Z,62.61
2018-08-11T07:40:46.094Z,61.81
2018-08-11T07:43:14.938Z,62.29
2018-08-11T07:45:43.824Z,63.10
2018-08-11T07:48:12.726Z,62.21
2018-08-11T07:50:41.556Z,63.08
2018-08-11T07:53:10.621Z,61.67
2018-08-11T07:55:39.435Z,61.30
2018-08-11T07:58:08.394Z,61.13
2018-08-11T08:00:38.103Z,59.43
2018-08-11T08:03:08.056Z,60.86
2018-08-11T08:05:36.918Z,60.98
2018-08-11T08:08:06.623Z,61.35
2018-08-11T08:10:40.766Z,61.82
2018-08-11T08:13:09.631Z,62.29
2018-08-11T08:15:38.417Z,62.95
2018-08-11T08:18:07.442Z,63.20
2018-08-11T08:20:36.477Z,62.57
2018-08-11T08:23:06.213Z,62.49
2018-08-11T08:25:35.568Z,62.22
2018-08-11T08:28:04.440Z,61.56
2018-08-11T08:30:33.489Z,59.96
2018-08-11T08:33:02.443Z,59.51
2018-08-11T08:35:31.326Z,58.54
2018-08-11T08:38:00.155Z,59.84
2018-08-11T08:40:29.140Z,60.61
2018-08-11T08:42:58.038Z,62.49
2018-08-11T08:45:26.992Z,62.08
2018-08-11T08:47:55.779Z,62.18
2018-08-11T08:50:24.564Z,63.53
2018-08-11T08:52:53.357Z,62.76
2018-08-11T08:55:22.351Z,63.43
2018-08-11T08:57:51.949Z,63.23
2018-08-11T09:00:22.012Z,63.85
2018-08-11T09:02:50.914Z,64.06
2018-08-11T09:05:20.507Z,63.27
2018-08-11T09:07:49.298Z,62.81
2018-08-11T09:10:18.646Z,61.58
2018-08-11T09:12:47.499Z,60.90
2018-08-11T09:15:16.517Z,61.52
2018-08-11T09:17:45.417Z,60.66
2018-08-11T09:20:14.659Z,59.95
2018-08-11T09:22:43.591Z,58.58
2018-08-11T09:25:12.650Z,58.13
2018-08-11T09:27:41.958Z,58.25
2018-08-11T09:30:10.879Z,58.39
2018-08-11T09:32:40.320Z,58.53
2018-08-11T09:35:09.172Z,58.40
2018-08-11T09:37:38.070Z,57.66
2018-08-11T09:40:07.398Z,57.91
2018-08-11T09:42:36.392Z,58.10
2018-08-11T09:45:05.630Z,58.04
2018-08-11T09:47:34.661Z,58.45
2018-08-11T09:50:03.837Z,58.24
2018-08-11T09:52:32.649Z,57.50
2018-08-11T09:55:01.557Z,55.58
2018-08-11T09:57:30.596Z,55.04
2018-08-11T09:59:59.434Z,54.96
2018-08-11T10:02:28.317Z,55.03
2018-08-11T10:04:57.313Z,54.54
2018-08-11T10:07:26.272Z,53.93
2018-08-11T10:09:55.079Z,54.88
2018-08-11T10:12:23.793Z,55.66
2018-08-11T10:14:52.581Z,54.79
2018-08-11T10:17:21.324Z,54.37
2018-08-11T10:19:50.242Z,54.22
2018-08-11T10:22:19.078Z,56.09
2018-08-11T10:24:47.944Z,54.52
2018-08-11T10:27:16.722Z,54.25
2018-08-11T10:29:45.645Z,53.37
2018-08-11T10:32:14.394Z,54.62
2018-08-11T10:34:43.131Z,54.02
2018-08-11T10:37:11.840Z,53.64
2018-08-11T10:39:40.694Z,53.11
2018-08-11T10:42:09.501Z,52.87
2018-08-11T10:44:38.369Z,52.24
2018-08-11T10:47:07.197Z,52.32
2018-08-11T10:49:35.986Z,52.60
2018-08-11T10:52:05.700Z,53.06
2018-08-11T10:54:34.405Z,53.96
2018-08-11T10:57:03.250Z,54.90
2018-08-11T10:59:31.986Z,54.25
2018-08-11T11:02:00.737Z,53.93
2018-08-11T11:04:29.500Z,51.79
2018-08-11T11:06:58.261Z,52.58
2018-08-11T11:09:27.027Z,52.78
2018-08-11T11:11:55.893Z,52.72
2018-08-11T11:14:24.737Z,51.55
2018-08-11T11:16:53.467Z,50.48
2018-08-11T11:19:23.747Z,50.52
2018-08-11T11:21:52.474Z,51.43
2018-08-11T11:24:21.431Z,49.56
2018-08-11T11:26:50.266Z,49.80
2018-08-11T11:29:19.108Z,49.49
2018-08-11T11:31:47.875Z,49.05
2018-08-11T11:34:16.626Z,49.36
2018-08-11T11:36:45.621Z,48.13
2018-08-11T11:39:14.447Z,47.45
2018-08-11T11:41:43.183Z,48.10
2018-08-11T11:44:12.006Z,47.62
2018-08-11T11:46:40.774Z,47.17
2018-08-11T11:49:09.510Z,47.79
2018-08-11T11:51:38.285Z,46.84
2018-08-11T11:54:07.072Z,47.05
2018-08-11T11:56:35.747Z,46.83
2018-08-11T11:59:04.456Z,46.10
2018-08-11T12:01:33.227Z,45.90
2018-08-11T12:04:01.958Z,44.47
2018-08-11T12:06:30.706Z,45.00
2018-08-11T12:08:59.494Z,43.31
2018-08-11T12:11:28.289Z,41.45
2018-08-11T12:13:57.178Z,40.19
2018-08-11T12:16:25.963Z,41.58
2018-08-11T12:18:54.710Z,41.05
2018-08-11T12:21:23.448Z,41.93
2018-08-11T12:23:58.511Z,41.80
2018-08-11T12:26:27.370Z,42.67
2018-08-11T12:28:56.293Z,40.96
2018-08-11T12:31:25.031Z,41.30
2018-08-11T12:33:53.863Z,40.41
2018-08-11T12:36:23.319Z,39.54
2018-08-11T12:38:52.120Z,38.96
2018-08-11T12:41:20.837Z,38.31
2018-08-11T12:43:49.598Z,38.73
2018-08-11T12:46:19.294Z,39.05
2018-08-11T12:48:48.337Z,38.11
2018-08-11T12:51:17.058Z,36.21
2018-08-11T12:53:45.809Z,36.13
2018-08-11T12:56:14.549Z,36.08
2018-08-11T12:58:43.291Z,37.54
2018-08-11T13:01:12.094Z,38.68
2018-08-11T13:03:40.785Z,37.88
2018-08-11T13:06:09.493Z,37.66
2018-08-11T13:08:38.326Z,38.35
2018-08-11T13:11:07.079Z,38.11
2018-08-11T13:13:35.913Z,38.12
2018-08-11T13:16:05.244Z,37.51
2018-08-11T13:18:34.817Z,36.95
2018-08-11T13:21:03.691Z,36.73
2018-08-11T13:23:32.656Z,38.04
2018-08-11T13:26:01.376Z,37.86
2018-08-11T13:28:30.225Z,36.32
2018-08-11T13:30:59.054Z,36.46
2018-08-11T13:33:27.972Z,36.00
2018-08-11T13:35:56.771Z,35.32
2018-08-11T13:38:25.446Z,35.67
2018-08-11T13:40:54.333Z,35.48
2018-08-11T13:43:23.659Z,34.50
2018-08-11T13:45:52.661Z,34.47
2018-08-11T13:48:21.391Z,33.79
2018-08-11T13:50:50.317Z,34.70
2018-08-11T13:53:19.316Z,33.95
2018-08-11T13:55:48.263Z,32.85
2018-08-11T13:58:16.965Z,33.02
2018-08-11T14:00:45.718Z,32.85
2018-08-11T14:03:14.672Z,32.39
2018-08-11T14:05:43.677Z,31.97
2018-08-11T14:08:12.439Z,32.58
2018-08-11T14:10:41.311Z,31.67
2018-08-11T14:13:10.209Z,31.51
2018-08-11T14:15:39.077Z,31.26
2018-08-11T14:18:07.926Z,29.24
2018-08-11T14:20:36.687Z,28.49
2018-08-11T14:23:05.546Z,27.86
2018-08-11T14:25:34.349Z,26.83
2018-08-11T14:28:03.247Z,26.96
2018-08-11T14:30:32.790Z,27.44
2018-08-11T14:33:01.540Z,27.23
2018-08-11T14:35:30.494Z,26.63
2018-08-11T14:37:59.354Z,27.26
2018-08-11T14:40:28.197Z,26.75
2018-08-11T14:42:57.137Z,27.45
2018-08-11T14:45:25.881Z,26.54
2018-08-11T14:47:54.828Z,27.53
2018-08-11T14:50:23.741Z,27.68
2018-08-11T14:52:52.572Z,28.07
2018-08-11T14:55:21.372Z,29.01
2018-08-11T14:57:50.162Z,28.65
2018-08-11T15:00:19.018Z,29.80
2018-08-11T15:02:48.505Z,29.29
2018-08-11T15:05:17.347Z,29.61
2018-08-11T15:07:46.229Z,29.89
2018-08-11T15:10:15.390Z,29.95
2018-08-11T15:12:44.540Z,29.61
2018-08-11T15:15:13.630Z,30.11
2018-08-11T15:17:43.270Z,30.32
2018-08-11T15:20:12.229Z,31.21
2018-08-11T15:22:41.220Z,31.16
2018-08-11T15:25:11.018Z,30.71
2018-08-11T15:27:40.646Z,30.41
2018-08-11T15:30:16.891Z,30.07
2018-08-11T15:32:45.629Z,30.18
2018-08-11T15:35:15.037Z,30.46
2018-08-11T15:37:43.798Z,30.10
2018-08-11T15:40:12.591Z,29.76
2018-08-11T15:42:41.622Z,28.79
2018-08-11T15:45:11.229Z,27.49
2018-08-11T15:47:40.845Z,27.04
2018-08-11T15:50:09.729Z,26.72
2018-08-11T15:52:38.485Z,25.13
2018-08-11T15:55:07.235Z,24.30
2018-08-11T15:57:35.962Z,22.76
2018-08-11T16:00:05.562Z,23.56
2018-08-11T16:02:34.281Z,24.51
2018-08-11T16:05:12.616Z,25.64
2018-08-11T16:07:41.573Z,25.53
2018-08-11T16:10:11.138Z,25.28
2018-08-11T16:12:40.066Z,25.16
2018-08-11T16:15:08.973Z,23.86
2018-08-11T16:17:37.764Z,23.07
2018-08-11T16:20:06.940Z,25.34
2018-08-11T16:22:35.745Z,24.28
2018-08-11T16:25:04.954Z,24.64
2018-08-11T16:27:33.725Z,26.31
2018-08-11T16:30:02.673Z,27.03
2018-08-11T16:32:31.412Z,26.60
2018-08-11T16:35:00.697Z,24.27
2018-08-11T16:37:29.740Z,22.21
2018-08-11T16:39:58.918Z,24.40
2018-08-11T16:42:28.442Z,23.85
2018-08-11T16:44:58.108Z,23.55
2018-08-11T16:47:34.957Z,25.45
2018-08-11T16:50:03.857Z,26.17
2018-08-11T16:52:33.274Z,24.43
2018-08-11T16:55:02.088Z,24.40
2018-08-11T16:57:41.519Z,22.72
2018-08-11T17:00:12.469Z,21.87
2018-08-11T17:02:42.912Z,23.62
2018-08-11T17:05:12.516Z,24.97
2018-08-11T17:07:41.740Z,26.79
2018-08-11T17:10:12.173Z,28.29
2018-08-11T17:12:40.960Z,27.35
2018-08-11T17:15:10.638Z,27.47
2018-08-11T17:17:39.482Z,27.17
2018-08-11T17:20:08.799Z,28.43
2018-08-11T17:22:37.529Z,29.16
2018-08-11T17:25:06.350Z,30.14
2018-08-11T17:27:35.517Z,30.47
2018-08-11T17:30:04.442Z,30.83
2018-08-11T17:32:33.290Z,31.95
2018-08-11T17:35:02.589Z,32.61
2018-08-11T17:37:31.487Z,32.72
2018-08-11T17:40:00.246Z,32.89
2018-08-11T17:42:28.934Z,33.34
2018-08-11T17:44:57.743Z,33.93
2018-08-11T17:47:26.492Z,33.76
2018-08-11T17:49:55.207Z,34.84
2018-08-11T17:52:23.895Z,34.83
2018-08-11T17:54:53.620Z,36.12
2018-08-11T17:57:22.331Z,36.36
2018-08-11T17:59:51.025Z,36.39
2018-08-11T18:02:20.166Z,36.78
2018-08-11T18:04:48.986Z,37.26
2018-08-11T18:07:17.743Z,37.71
2018-08-11T18:09:46.596Z,38.16
2018-08-11T18:12:15.639Z,38.49
2018-08-11T18:14:44.509Z,38.51
2018-08-11T18:17:13.417Z,39.09
2018-08-11T18:19:42.273Z,38.91
2018-08-11T18:22:10.983Z,39.55
2018-08-11T18:24:39.840Z,39.92
2018-08-11T18:27:08.575Z,40.25
2018-08-11T18:29:37.367Z,40.55
2018-08-11T18:32:07.186Z,40.50
2018-08-11T18:34:37.336Z,40.36
2018-08-11T18:37:06.055Z,41.04
2018-08-11T18:39:35.084Z,40.91
2018-08-11T18:42:03.788Z,40.88
2018-08-11T18:44:32.704Z,41.50
2018-08-11T18:47:01.434Z,41.17
2018-08-11T18:49:30.173Z,41.07
2018-08-11T18:51:58.958Z,41.38
2018-08-11T18:54:27.715Z,41.64
2018-08-11T18:56:57.924Z,41.42
2018-08-11T18:59:26.999Z,41.74
2018-08-11T19:01:55.706Z,41.23
2018-08-11T19:04:24.683Z,41.56
2018-08-11T19:06:54.424Z,41.52
2018-08-11T19:09:23.171Z,41.88
2018-08-11T19:11:52.010Z,42.46
2018-08-11T19:14:20.741Z,42.22
2018-08-11T19:16:49.565Z,42.56
2018-08-11T19:19:18.462Z,42.92
2018-08-11T19:21:47.400Z,42.53
2018-08-11T19:24:16.299Z,43.05
2018-08-11T19:26:45.059Z,42.69
2018-08-11T19:29:13.846Z,43.42
2018-08-11T19:31:43.658Z,42.87
2018-08-11T19:34:12.490Z,43.42
2018-08-11T19:36:41.229Z,43.32
2018-08-11T19:39:11.871Z,43.46
2018-08-11T19:41:41.278Z,43.66
2018-08-11T19:44:10.553Z,43.39
2018-08-11T19:46:39.383Z,43.32
2018-08-11T19:49:08.021Z,43.65
2018-08-11T19:51:36.734Z,43.76
2018-08-11T19:54:05.554Z,43.73
2018-08-11T19:56:34.264Z,43.94
2018-08-11T19:59:02.986Z,44.02
2018-08-11T20:01:32.149Z,43.95
2018-08-11T20:04:00.845Z,44.46
2018-08-11T20:06:29.570Z,44.28
2018-08-11T20:08:58.300Z,44.39
2018-08-11T20:11:27.060Z,44.54
2018-08-11T20:13:55.911Z,44.36
2018-08-11T20:16:24.678Z,44.81
2018-08-11T20:18:53.802Z,44.59
2018-08-11T20:21:22.583Z,45.16
2018-08-11T20:23:51.343Z,45.16
2018-08-11T20:26:20.133Z,45.28
2018-08-11T20:28:48.926Z,45.48
2018-08-11T20:31:17.761Z,45.09
2018-08-11T20:33:46.648Z,45.48
2018-08-11T20:36:15.595Z,45.41
2018-08-11T20:38:45.299Z,45.83
2018-08-11T20:41:14.830Z,46.08
2018-08-11T20:43:43.630Z,46.20
2018-08-11T20:46:12.612Z,46.08
2018-08-11T20:48:43.996Z,46.88
2018-08-11T20:51:12.839Z,46.99
2018-08-11T20:53:41.627Z,46.71
2018-08-11T20:56:10.402Z,47.02
2018-08-11T20:58:40.179Z,47.18
2018-08-11T21:01:09.086Z,47.22
2018-08-11T21:03:37.937Z,47.60
2018-08-11T21:06:07.102Z,47.36
2018-08-11T21:08:35.891Z,47.74
2018-08-11T21:11:04.686Z,48.30
2018-08-11T21:13:33.384Z,47.77
2018-08-11T21:16:02.060Z,48.10
2018-08-11T21:18:31.292Z,48.21
2018-08-11T21:21:00.321Z,48.53
2018-08-11T21:23:29.583Z,48.03
2018-08-11T21:25:58.293Z,48.30
2018-08-11T21:28:27.112Z,48.57
2018-08-11T21:30:55.845Z,48.34
2018-08-11T21:33:24.533Z,47.75
2018-08-11T21:35:53.262Z,48.04
2018-08-11T21:38:22.042Z,47.81
2018-08-11T21:40:50.733Z,47.85
2018-08-11T21:43:19.471Z,47.67
2018-08-11T21:45:54.681Z,48.10
2018-08-11T21:48:23.475Z,47.62
2018-08-11T21:50:52.235Z,47.98
2018-08-11T21:53:20.949Z,48.03
2018-08-11T21:55:49.714Z,47.95
2018-08-11T21:58:18.443Z,48.21
2018-08-11T22:00:52.393Z,49.00
2018-08-11T22:03:21.096Z,48.50
2018-08-11T22:05:49.838Z,48.61
2018-08-11T22:08:18.579Z,48.45
2018-08-11T22:10:48.297Z,49.07
2018-08-11T22:13:17.042Z,48.56
2018-08-11T22:15:45.762Z,48.43
2018-08-11T22:18:14.462Z,48.30
2018-08-11T22:20:43.234Z,48.61
2018-08-11T22:23:11.936Z,48.73
2018-08-11T22:25:40.737Z,48.75
2018-08-11T22:28:09.398Z,48.62
2018-08-11T22:30:38.114Z,47.96
2018-08-11T22:33:06.865Z,48.29
2018-08-11T22:35:35.703Z,48.59
2018-08-11T22:38:04.466Z,48.21
2018-08-11T22:40:33.242Z,48.14
2018-08-11T22:43:01.974Z,48.95
2018-08-11T22:45:30.646Z,49.03
2018-08-11T22:47:59.402Z,48.77
2018-08-11T22:50:28.173Z,48.17
2018-08-11T22:52:56.935Z,48.36
2018-08-11T22:55:25.593Z,49.02
2018-08-11T22:57:54.310Z,48.47
2018-08-11T23:00:23.145Z,48.97
2018-08-11T23:02:51.955Z,48.14
2018-08-11T23:05:21.565Z,48.77
2018-08-11T23:07:50.427Z,49.31
2018-08-11T23:10:19.249Z,49.27
2018-08-11T23:12:48.150Z,49.00
2018-08-11T23:15:18.365Z,48.74
2018-08-11T23:17:49.493Z,48.98
2018-08-11T23:20:18.271Z,48.50
2018-08-11T23:22:46.966Z,48.30
2018-08-11T23:25:16.174Z,48.66
2018-08-11T23:27:44.903Z,49.56
2018-08-11T23:30:15.622Z,49.67
2018-08-11T23:32:44.622Z,49.14
2018-08-11T23:35:13.741Z,48.41
2018-08-11T23:37:42.755Z,48.46
2018-08-11T23:40:11.835Z,48.01
2018-08-11T23:42:40.649Z,47.50
2018-08-11T23:45:11.967Z,47.08
2018-08-11T23:47:41.200Z,47.64
2018-08-11T23:50:10.690Z,47.46
2018-08-11T23:52:40.108Z,46.95
2018-08-11T23:55:09.986Z,47.16
2018-08-11T23:57:38.661Z,46.73
